createdAt,value
2022-12-24T00:02:10.806Z,2.10
2022-12-24T00:05:00.818Z,2.42
2022-12-24T00:07:46.879Z,2.33
2022-12-24T00:10:32.438Z,1.92
2022-12-24T00:13:18.013Z,2.38
2022-12-24T00:16:04.308Z,2.10
2022-12-24T00:18:50.063Z,2.10
2022-12-24T00:21:35.729Z,1.90
2022-12-24T00:24:21.571Z,2.03
2022-12-24T00:27:07.061Z,2.53
2022-12-24T00:29:52.651Z,1.95
2022-12-24T00:32:38.774Z,2.00
2022-12-24T00:35:24.506Z,1.85
2022-12-24T00:38:10.026Z,1.83
2022-12-24T00:41:03.315Z,1.83
2022-12-24T00:43:48.689Z,2.25
2022-12-24T00:46:35.409Z,1.70
2022-12-24T00:49:21.117Z,2.05
2022-12-24T00:52:06.642Z,2.10
2022-12-24T00:54:52.309Z,1.67
2022-12-24T00:57:38.105Z,1.80
2022-12-24T01:00:23.604Z,1.85
2022-12-24T01:03:09.332Z,1.85
2022-12-24T01:05:54.591Z,1.83
2022-12-24T01:08:41.041Z,1.70
2022-12-24T01:11:26.474Z,1.80
2022-12-24T01:14:12.211Z,1.97
2022-12-24T01:16:58.013Z,1.77
2022-12-24T01:19:43.417Z,2.00
2022-12-24T01:22:28.937Z,1.95
2022-12-24T01:25:15.171Z,1.93
2022-12-24T01:28:00.861Z,1.98
2022-12-24T01:30:46.916Z,1.98
2022-12-24T01:33:32.313Z,2.03
2022-12-24T01:36:17.972Z,2.22
2022-12-24T01:39:04.114Z,1.95
2022-12-24T01:42:08.181Z,2.53
2022-12-24T01:44:54.453Z,2.65
2022-12-24T01:47:40.437Z,2.20
2022-12-24T01:50:26.056Z,2.35
2022-12-24T01:53:14.033Z,2.20
2022-12-24T01:55:59.533Z,2.30
2022-12-24T01:58:48.833Z,2.70
2022-12-24T02:01:34.936Z,2.30
2022-12-24T02:04:40.886Z,2.55
2022-12-24T02:07:26.689Z,3.45
2022-12-24T02:10:15.179Z,2.53
2022-12-24T02:13:02.906Z,2.67
2022-12-24T02:16:00.357Z,3.13
2022-12-24T02:19:08.057Z,2.70
2022-12-24T02:22:11.768Z,3.17
2022-12-24T02:25:00.531Z,3.27
2022-12-24T02:27:49.137Z,3.67
2022-12-24T02:30:48.542Z,3.30
2022-12-24T02:33:57.169Z,3.45
2022-12-24T02:36:58.080Z,3.15
2022-12-24T02:39:52.235Z,3.40
2022-12-24T02:42:42.204Z,3.60
2022-12-24T02:45:36.001Z,3.57
2022-12-24T02:48:23.704Z,3.83
2022-12-24T02:51:10.781Z,3.50
2022-12-24T02:53:56.268Z,3.60
2022-12-24T02:56:44.742Z,3.50
2022-12-24T03:00:05.672Z,3.47
2022-12-24T03:02:55.778Z,3.93
2022-12-24T03:05:47.989Z,3.93
2022-12-24T03:08:35.861Z,3.92
2022-12-24T03:11:21.697Z,3.85
2022-12-24T03:14:07.550Z,4.03
2022-12-24T03:16:53.272Z,3.75
2022-12-24T03:19:39.796Z,3.57
2022-12-24T03:22:27.118Z,4.00
2022-12-24T03:25:12.675Z,4.55
2022-12-24T03:28:01.621Z,4.28
2022-12-24T03:30:48.945Z,3.88
2022-12-24T03:33:34.753Z,4.38
2022-12-24T03:36:20.381Z,3.93
2022-12-24T03:39:06.996Z,4.22
2022-12-24T03:41:52.549Z,3.90
2022-12-24T03:44:38.443Z,4.05
2022-12-24T03:47:23.874Z,4.10
2022-12-24T03:50:09.866Z,3.58
2022-12-24T03:52:56.086Z,4.80
2022-12-24T03:55:41.512Z,4.15
2022-12-24T03:58:27.129Z,4.68
2022-12-24T04:01:12.873Z,4.32
2022-12-24T04:03:58.460Z,4.70
2022-12-24T04:06:44.035Z,3.88
2022-12-24T04:09:29.382Z,3.95
2022-12-24T04:12:14.979Z,4.32
2022-12-24T04:15:00.409Z,3.60
2022-12-24T04:17:45.898Z,3.77
2022-12-24T04:20:31.412Z,4.28
2022-12-24T04:23:16.807Z,4.10
2022-12-24T04:26:03.970Z,4.10
2022-12-24T04:28:49.795Z,4.07
2022-12-24T04:31:35.695Z,4.47
2022-12-24T04:34:21.205Z,4.07
2022-12-24T04:37:06.558Z,4.50
2022-12-24T04:39:51.867Z,4.30
2022-12-24T04:42:37.450Z,4.60
2022-12-24T04:45:23.026Z,4.30
2022-12-24T04:48:08.899Z,4.47
2022-12-24T04:50:54.367Z,4.50
2022-12-24T04:53:40.962Z,4.38
2022-12-24T04:56:28.915Z,4.07
2022-12-24T04:59:14.386Z,4.30
2022-12-24T05:02:00.036Z,4.45
2022-12-24T05:04:45.916Z,4.13
2022-12-24T05:07:31.301Z,4.10
2022-12-24T05:10:16.866Z,3.97
2022-12-24T05:13:02.217Z,3.80
2022-12-24T05:15:47.689Z,4.53
2022-12-24T05:18:33.025Z,5.05
2022-12-24T05:21:21.692Z,3.83
2022-12-24T05:24:25.725Z,4.70
2022-12-24T05:27:11.144Z,4.47
2022-12-24T05:29:56.629Z,3.97
2022-12-24T05:32:42.235Z,4.22
2022-12-24T05:35:27.526Z,4.45
2022-12-24T05:38:13.067Z,4.30
2022-12-24T05:40:58.669Z,3.95
2022-12-24T05:43:44.169Z,3.78
2022-12-24T05:46:30.068Z,4.53
2022-12-24T05:49:15.602Z,4.57
2022-12-24T05:52:01.331Z,4.47
2022-12-24T05:54:46.728Z,4.27
2022-12-24T05:57:32.307Z,4.18
2022-12-24T06:00:18.184Z,4.80
2022-12-24T06:03:03.977Z,4.22
2022-12-24T06:05:49.646Z,4.57
2022-12-24T06:08:36.576Z,4.00
2022-12-24T06:11:24.296Z,3.95
2022-12-24T06:14:12.701Z,3.95
2022-12-24T06:16:58.861Z,3.90
2022-12-24T06:19:44.584Z,3.53
2022-12-24T06:22:30.362Z,3.92
2022-12-24T06:25:16.070Z,3.25
2022-12-24T06:28:01.384Z,3.10
2022-12-24T06:30:49.395Z,3.00
2022-12-24T06:33:35.208Z,3.53
2022-12-24T06:36:23.517Z,3.10
2022-12-24T06:39:09.203Z,3.20
2022-12-24T06:41:55.123Z,2.88
2022-12-24T06:44:40.666Z,3.08
2022-12-24T06:47:26.313Z,3.10
2022-12-24T06:50:12.396Z,3.20
2022-12-24T06:52:57.863Z,2.63
2022-12-24T06:55:43.518Z,2.67
2022-12-24T06:58:29.281Z,2.88
2022-12-24T07:01:17.811Z,2.78
2022-12-24T07:04:03.888Z,2.75
2022-12-24T07:06:49.504Z,2.80
2022-12-24T07:09:35.246Z,2.30
2022-12-24T07:12:20.657Z,2.60
2022-12-24T07:15:07.030Z,2.42
2022-12-24T07:17:52.905Z,2.63
2022-12-24T07:20:38.708Z,2.80
2022-12-24T07:23:24.976Z,2.57
2022-12-24T07:26:10.876Z,2.40
2022-12-24T07:28:56.592Z,2.38
2022-12-24T07:31:42.165Z,2.20
2022-12-24T07:34:27.632Z,2.30
2022-12-24T07:37:13.146Z,2.40
2022-12-24T07:39:59.244Z,2.10
2022-12-24T07:42:44.934Z,2.40
2022-12-24T07:45:30.572Z,2.17
2022-12-24T07:48:16.214Z,2.20
2022-12-24T07:51:02.323Z,2.30
2022-12-24T07:53:48.069Z,2.50
2022-12-24T07:56:33.849Z,2.35
2022-12-24T07:59:19.734Z,2.30
2022-12-24T08:02:05.476Z,2.30
2022-12-24T08:04:51.135Z,2.03
2022-12-24T08:07:36.714Z,2.30
2022-12-24T08:10:22.223Z,2.53
2022-12-24T08:13:08.162Z,2.60
2022-12-24T08:15:54.236Z,2.10
2022-12-24T08:18:39.980Z,2.10
2022-12-24T08:21:25.561Z,2.00
2022-12-24T08:24:11.137Z,2.55
2022-12-24T08:26:56.421Z,2.10
2022-12-24T08:29:42.096Z,1.90
2022-12-24T08:32:27.591Z,2.10
2022-12-24T08:35:14.377Z,1.98
2022-12-24T08:37:59.839Z,2.00
2022-12-24T08:40:48.825Z,2.13
2022-12-24T08:43:34.840Z,2.22
2022-12-24T08:46:20.276Z,2.60
2022-12-24T08:49:05.697Z,2.30
2022-12-24T08:51:51.841Z,2.42
2022-12-24T08:54:37.601Z,2.30
2022-12-24T08:57:23.105Z,2.00
2022-12-24T09:00:09.710Z,2.20
2022-12-24T09:02:56.989Z,2.22
2022-12-24T09:05:43.048Z,2.15
2022-12-24T09:08:29.070Z,1.80
2022-12-24T09:11:17.817Z,1.92
2022-12-24T09:14:03.410Z,1.77
2022-12-24T09:16:49.166Z,2.13
2022-12-24T09:19:35.023Z,1.95
2022-12-24T09:22:21.312Z,1.90
2022-12-24T09:25:08.725Z,2.00
2022-12-24T09:27:54.263Z,2.13
2022-12-24T09:30:39.725Z,1.90
2022-12-24T09:33:25.715Z,1.70
2022-12-24T09:36:11.421Z,2.20
2022-12-24T09:38:56.819Z,2.17
2022-12-24T09:42:03.538Z,2.20
2022-12-24T09:45:12.296Z,2.00
2022-12-24T09:48:02.111Z,1.77
2022-12-24T09:50:50.554Z,1.97
2022-12-24T09:53:39.367Z,1.85
2022-12-24T09:56:30.282Z,2.20
2022-12-24T09:59:24.977Z,1.65
2022-12-24T10:02:14.322Z,1.77
2022-12-24T10:04:59.807Z,1.90
2022-12-24T10:07:58.093Z,1.98
2022-12-24T10:11:19.688Z,2.17
2022-12-24T10:14:17.124Z,1.90
2022-12-24T10:17:44.652Z,2.10
2022-12-24T10:20:42.469Z,1.83
2022-12-24T10:23:42.685Z,2.00
2022-12-24T10:26:38.908Z,2.10
2022-12-24T10:29:29.901Z,1.90
2022-12-24T10:32:30.002Z,1.75
2022-12-24T10:35:15.858Z,2.10
2022-12-24T10:38:02.316Z,2.05
2022-12-24T10:40:51.675Z,1.90
2022-12-24T10:43:42.135Z,1.95
2022-12-24T10:46:38.938Z,1.90
2022-12-24T10:49:33.781Z,1.98
2022-12-24T10:52:22.328Z,1.90
2022-12-24T10:55:21.201Z,1.90
2022-12-24T10:58:13.326Z,2.10
2022-12-24T11:00:59.014Z,2.00
2022-12-24T11:03:45.039Z,2.27
2022-12-24T11:06:31.147Z,1.75
2022-12-24T11:09:32.511Z,1.77
2022-12-24T11:12:23.030Z,2.00
2022-12-24T11:15:24.463Z,1.85
2022-12-24T11:18:15.085Z,1.80
2022-12-24T11:21:01.285Z,1.83
2022-12-24T11:23:55.685Z,2.10
2022-12-24T11:26:43.305Z,2.47
2022-12-24T11:29:29.222Z,1.88
2022-12-24T11:32:19.949Z,1.97
2022-12-24T11:35:17.744Z,2.20
2022-12-24T11:38:03.408Z,2.20
2022-12-24T11:40:58.443Z,1.80
2022-12-24T11:43:46.884Z,1.65
2022-12-24T11:46:52.417Z,2.45
2022-12-24T11:49:38.194Z,2.20
2022-12-24T11:52:25.618Z,2.05
2022-12-24T11:55:18.497Z,1.90
2022-12-24T11:58:16.452Z,1.95
2022-12-24T12:01:21.038Z,2.05
2022-12-24T12:04:22.166Z,1.83
2022-12-24T12:07:15.769Z,2.58
2022-12-24T12:10:06.317Z,1.80
2022-12-24T12:13:14.940Z,2.35
2022-12-24T12:16:55.515Z,1.70
2022-12-24T12:19:49.021Z,2.00
2022-12-24T12:23:00.813Z,2.40
2022-12-24T12:25:46.276Z,1.90
2022-12-24T12:29:01.459Z,1.88
2022-12-24T12:31:51.387Z,1.75
2022-12-24T12:35:04.226Z,1.75
2022-12-24T12:38:00.599Z,1.88
2022-12-24T12:41:01.206Z,1.88
2022-12-24T12:44:41.810Z,1.88
2022-12-24T12:47:45.859Z,1.92
2022-12-24T12:50:48.478Z,1.70
2022-12-24T12:53:43.160Z,2.05
2022-12-24T12:56:37.130Z,1.83
2022-12-24T12:59:44.895Z,1.70
2022-12-24T13:02:33.851Z,1.90
2022-12-24T13:05:38.069Z,1.75
2022-12-24T13:08:27.551Z,2.45
2022-12-24T13:11:28.249Z,3.15
2022-12-24T13:14:37.186Z,9.13
2022-12-24T13:17:47.128Z,22.15
2022-12-24T13:20:36.973Z,30.52
2022-12-24T13:23:25.708Z,31.23
2022-12-24T13:26:13.817Z,31.13
2022-12-24T13:29:36.604Z,30.45
2022-12-24T13:32:22.416Z,201.27
2022-12-24T13:35:19.961Z,171.98
2022-12-24T13:38:44.493Z,157.23
2022-12-24T13:41:41.413Z,149.25
2022-12-24T13:44:33.063Z,145.32
2022-12-24T13:47:31.639Z,134.05
2022-12-24T13:50:52.648Z,132.10
2022-12-24T13:53:46.089Z,129.15
2022-12-24T13:56:32.169Z,130.00
2022-12-24T13:59:38.361Z,127.45
2022-12-24T14:02:25.989Z,113.15
2022-12-24T14:05:23.136Z,118.20
2022-12-24T14:08:32.058Z,118.30
2022-12-24T14:11:18.873Z,117.43
2022-12-24T14:14:04.611Z,110.32
2022-12-24T14:16:52.716Z,109.97
2022-12-24T14:19:48.472Z,111.32
2022-12-24T14:22:42.500Z,110.22
2022-12-24T14:25:28.503Z,110.43
2022-12-24T14:28:22.024Z,109.38
2022-12-24T14:31:15.556Z,108.75
2022-12-24T14:34:11.961Z,107.40
2022-12-24T14:37:03.293Z,106.63
2022-12-24T14:39:56.777Z,101.65
2022-12-24T14:43:06.604Z,100.57
2022-12-24T14:46:10.079Z,101.38
2022-12-24T14:49:04.288Z,99.82
2022-12-24T14:52:18.414Z,94.70
2022-12-24T14:55:31.535Z,98.20
2022-12-24T14:58:52.783Z,94.32
2022-12-24T15:01:38.406Z,92.68
2022-12-24T15:04:23.754Z,94.10
2022-12-24T15:07:12.034Z,91.85
2022-12-24T15:09:57.449Z,90.15
2022-12-24T15:12:43.772Z,91.97
2022-12-24T15:15:29.379Z,91.28
2022-12-24T15:18:19.042Z,88.95
2022-12-24T15:21:07.820Z,84.32
2022-12-24T15:23:53.276Z,86.45
2022-12-24T15:26:45.012Z,84.65
2022-12-24T15:29:33.106Z,85.85
2022-12-24T15:32:20.925Z,85.03
2022-12-24T15:35:06.946Z,81.03
2022-12-24T15:37:52.770Z,84.18
2022-12-24T15:40:38.275Z,83.05
2022-12-24T15:43:25.162Z,83.28
2022-12-24T15:46:17.502Z,84.88
2022-12-24T15:49:03.706Z,84.60
2022-12-24T15:51:49.352Z,84.10
2022-12-24T15:54:35.382Z,86.85
2022-12-24T15:57:31.966Z,83.88
2022-12-24T16:00:24.124Z,84.97
2022-12-24T16:03:20.772Z,86.23
2022-12-24T16:06:11.823Z,86.57
2022-12-24T16:08:57.309Z,84.28
2022-12-24T16:11:43.089Z,86.57
2022-12-24T16:14:29.775Z,85.20
2022-12-24T16:17:27.767Z,83.35
2022-12-24T16:20:21.140Z,81.45
2022-12-24T16:23:19.538Z,80.88
2022-12-24T16:26:05.310Z,78.90
2022-12-24T16:28:51.068Z,76.95
2022-12-24T16:31:51.813Z,77.90
2022-12-24T16:34:37.360Z,77.03
2022-12-24T16:37:22.847Z,76.10
2022-12-24T16:40:19.323Z,72.50
2022-12-24T16:43:27.188Z,71.85
2022-12-24T16:46:13.656Z,71.68
2022-12-24T16:48:59.419Z,69.00
2022-12-24T16:51:45.577Z,67.37
2022-12-24T16:54:31.501Z,69.45
2022-12-24T16:57:17.893Z,68.65
2022-12-24T17:00:07.828Z,66.37
2022-12-24T17:02:53.790Z,65.07
2022-12-24T17:05:44.023Z,63.53
2022-12-24T17:08:29.477Z,63.60
2022-12-24T17:11:15.228Z,63.60
2022-12-24T17:14:07.877Z,64.00
2022-12-24T17:16:54.325Z,61.67
2022-12-24T17:19:41.140Z,60.00
2022-12-24T17:22:27.656Z,59.30
2022-12-24T17:25:14.204Z,58.50
2022-12-24T17:28:00.108Z,57.40
2022-12-24T17:30:45.659Z,56.60
2022-12-24T17:33:31.377Z,54.47
2022-12-24T17:36:17.555Z,55.15
2022-12-24T17:39:03.879Z,54.10
2022-12-24T17:41:49.381Z,53.95
2022-12-24T17:44:34.937Z,53.45
2022-12-24T17:47:20.919Z,52.53
2022-12-24T17:50:06.997Z,53.17
2022-12-24T17:52:52.738Z,51.60
2022-12-24T17:55:44.561Z,51.33
2022-12-24T17:58:30.839Z,51.65
2022-12-24T18:01:21.814Z,50.25
2022-12-24T18:04:07.762Z,49.55
2022-12-24T18:06:59.669Z,50.50
2022-12-24T18:09:47.943Z,50.45
2022-12-24T18:12:33.596Z,49.53
2022-12-24T18:15:20.464Z,47.53
2022-12-24T18:18:07.374Z,47.03
2022-12-24T18:20:52.837Z,46.63
2022-12-24T18:23:38.342Z,46.78
2022-12-24T18:26:26.727Z,46.57
2022-12-24T18:29:13.077Z,44.63
2022-12-24T18:31:58.546Z,46.20
2022-12-24T18:34:44.719Z,45.03
2022-12-24T18:37:30.625Z,45.95
2022-12-24T18:40:18.077Z,44.70
2022-12-24T18:43:04.568Z,45.95
2022-12-24T18:45:50.505Z,44.15
2022-12-24T18:48:36.138Z,43.85
2022-12-24T18:51:24.012Z,43.70
2022-12-24T18:54:09.493Z,43.40
2022-12-24T18:56:55.065Z,43.05
2022-12-24T18:59:40.703Z,42.97
2022-12-24T19:02:26.696Z,42.40
2022-12-24T19:05:15.039Z,42.67
2022-12-24T19:08:02.026Z,42.67
2022-12-24T19:10:56.642Z,42.25
2022-12-24T19:13:46.896Z,41.15
2022-12-24T19:16:37.437Z,40.53
2022-12-24T19:19:24.520Z,41.28
2022-12-24T19:22:10.072Z,39.55
2022-12-24T19:24:58.926Z,37.72
2022-12-24T19:27:44.352Z,38.67
2022-12-24T19:30:29.725Z,37.60
2022-12-24T19:33:15.209Z,37.13
2022-12-24T19:36:08.864Z,36.63
2022-12-24T19:38:56.410Z,36.28
2022-12-24T19:41:42.201Z,34.97
2022-12-24T19:44:28.197Z,34.85
2022-12-24T19:47:13.639Z,32.80
2022-12-24T19:49:59.303Z,33.78
2022-12-24T19:52:45.750Z,34.00
2022-12-24T19:55:31.234Z,33.70
2022-12-24T19:58:16.838Z,33.35
2022-12-24T20:01:15.293Z,33.00
2022-12-24T20:04:03.146Z,32.67
2022-12-24T20:06:51.256Z,31.27
2022-12-24T20:09:41.751Z,30.80
2022-12-24T20:12:27.373Z,31.20
2022-12-24T20:15:13.149Z,31.08
2022-12-24T20:17:59.540Z,29.95
2022-12-24T20:20:45.273Z,30.27
2022-12-24T20:23:31.577Z,29.92
2022-12-24T20:26:19.345Z,29.90
2022-12-24T20:29:08.515Z,28.73
2022-12-24T20:31:54.245Z,29.52
2022-12-24T20:34:40.312Z,29.45
2022-12-24T20:37:26.043Z,27.90
2022-12-24T20:40:11.678Z,28.23
2022-12-24T20:42:57.222Z,27.10
2022-12-24T20:45:49.461Z,27.70
2022-12-24T20:48:35.805Z,27.92
2022-12-24T20:51:27.135Z,26.52
2022-12-24T20:54:13.061Z,26.83
2022-12-24T20:56:59.028Z,27.45
2022-12-24T20:59:44.660Z,26.48
2022-12-24T21:02:30.312Z,25.70
2022-12-24T21:05:16.220Z,26.10
2022-12-24T21:08:01.932Z,25.20
2022-12-24T21:10:47.542Z,25.65
2022-12-24T21:13:33.018Z,25.08
2022-12-24T21:16:18.523Z,24.33
2022-12-24T21:19:05.611Z,24.77
2022-12-24T21:21:51.922Z,24.20
2022-12-24T21:24:37.309Z,24.47
2022-12-24T21:27:22.823Z,23.35
2022-12-24T21:30:09.185Z,23.27
2022-12-24T21:32:54.627Z,22.42
2022-12-24T21:35:40.270Z,22.27
2022-12-24T21:38:26.644Z,22.13
2022-12-24T21:41:15.724Z,22.08
2022-12-24T21:44:02.265Z,21.75
2022-12-24T21:46:47.974Z,21.97
2022-12-24T21:49:52.898Z,20.92
2022-12-24T21:52:38.323Z,20.85
2022-12-24T21:55:23.940Z,20.55
2022-12-24T21:58:09.475Z,20.52
2022-12-24T22:00:54.936Z,19.20
2022-12-24T22:03:40.381Z,19.87
2022-12-24T22:06:46.166Z,19.77
2022-12-24T22:09:50.565Z,19.33
2022-12-24T22:12:36.430Z,18.67
2022-12-24T22:15:22.771Z,18.43
2022-12-24T22:18:08.628Z,18.27
2022-12-24T22:20:55.495Z,17.73
2022-12-24T22:23:42.707Z,17.73
2022-12-24T22:26:28.648Z,17.42
2022-12-24T22:29:14.736Z,16.80
2022-12-24T22:32:00.224Z,17.08
2022-12-24T22:34:46.581Z,16.88
2022-12-24T22:37:32.305Z,16.30
2022-12-24T22:40:17.759Z,16.30
2022-12-24T22:43:03.339Z,15.73
2022-12-24T22:45:48.922Z,15.80
2022-12-24T22:48:38.898Z,16.42
2022-12-24T22:51:24.558Z,15.85
2022-12-24T22:54:10.133Z,15.57
2022-12-24T22:56:55.713Z,15.35
2022-12-24T22:59:41.142Z,15.85
2022-12-24T23:02:28.606Z,15.38
2022-12-24T23:05:15.085Z,15.57
2022-12-24T23:08:01.196Z,14.63
2022-12-24T23:10:46.797Z,15.45
2022-12-24T23:13:50.539Z,14.60
2022-12-24T23:16:36.480Z,14.65
2022-12-24T23:19:22.170Z,14.25
2022-12-24T23:22:07.915Z,13.63
2022-12-24T23:24:53.322Z,13.50
2022-12-24T23:27:39.177Z,13.60
2022-12-24T23:30:24.743Z,13.27
2022-12-24T23:33:10.244Z,13.30
2022-12-24T23:35:55.881Z,12.38
2022-12-24T23:38:41.662Z,13.18
2022-12-24T23:41:27.379Z,13.17
2022-12-24T23:44:13.026Z,12.15
2022-12-24T23:46:58.747Z,11.80
2022-12-24T23:49:44.634Z,11.88
2022-12-24T23:52:30.295Z,12.27
2022-12-24T23:55:16.487Z,12.00
2022-12-24T23:58:02.279Z,12.32
